Time;durP1;ratioP1;P1;durP2;ratioP2;P2;SDS_P1;SDS_P2;PMS_P1;PMS_P2;Temp;Humidity;BMP_temperature;BMP_pressure;BME280_temperature;BME280_humidity;BME280_pressure;Samples;Min_cycle;Max_cycle;Signal;HPM_P1;HPM_P2
2023/02/05 00:02:22;;;;;;;41.43;23.87;;;8.70;99.90;;;;;;6274164;22;38381;-77
2023/02/05 00:04:48;;;;;;;42.40;23.77;;;8.70;99.90;;;;;;6277440;22;38414;-77
2023/02/05 00:07:15;;;;;;;41.87;24.37;;;8.70;99.90;;;;;;6245045;22;38158;-77
2023/02/05 00:09:41;;;;;;;47.03;24.37;;;8.70;99.90;;;;;;6273000;22;38393;-77
2023/02/05 00:12:07;;;;;;;41.37;24.43;;;8.60;99.90;;;;;;6270649;22;38973;-77
2023/02/05 00:14:33;;;;;;;38.07;22.43;;;8.60;99.90;;;;;;6276275;22;39616;-77
2023/02/05 00:16:59;;;;;;;40.57;20.87;;;8.60;99.90;;;;;;6275104;22;38031;-76
2023/02/05 00:19:25;;;;;;;38.00;21.03;;;8.70;99.90;;;;;;6243813;22;36164;-77
2023/02/05 00:21:51;;;;;;;33.30;19.40;;;8.60;99.90;;;;;;6245587;22;37777;-77
2023/02/05 00:24:18;;;;;;;30.83;17.87;;;8.60;99.90;;;;;;6242763;22;38974;-77
2023/02/05 00:26:44;;;;;;;36.87;19.53;;;8.60;99.90;;;;;;6272161;22;37910;-76
2023/02/05 00:29:10;;;;;;;31.17;15.83;;;8.60;99.90;;;;;;6243477;22;36771;-77
2023/02/05 00:31:36;;;;;;;27.50;15.03;;;8.60;99.90;;;;;;6246843;22;37444;-77
2023/02/05 00:34:02;;;;;;;28.00;14.80;;;8.60;99.90;;;;;;6271969;22;37874;-79
2023/02/05 00:36:28;;;;;;;26.80;14.77;;;8.60;99.90;;;;;;6271465;22;38982;-77
2023/02/05 00:38:54;;;;;;;32.60;14.47;;;8.60;99.90;;;;;;6245489;22;36206;-77
2023/02/05 00:41:20;;;;;;;25.17;13.17;;;8.60;99.90;;;;;;6242690;22;38852;-76
2023/02/05 00:43:46;;;;;;;22.73;11.20;;;8.60;99.90;;;;;;6244710;22;40093;-77
2023/02/05 00:46:13;;;;;;;27.47;11.77;;;8.60;99.90;;;;;;6264205;22;39145;-77
2023/02/05 00:48:40;;;;;;;18.43;9.90;;;8.60;99.90;;;;;;6271866;22;37168;-77
2023/02/05 00:51:08;;;;;;;25.57;9.60;;;8.50;99.90;;;;;;6271186;22;39435;-77
2023/02/05 00:53:34;;;;;;;18.63;9.67;;;8.50;99.90;;;;;;6248595;22;38146;-78
2023/02/05 00:56:00;;;;;;;17.40;8.67;;;8.50;99.90;;;;;;6275245;22;39788;-77
2023/02/05 00:58:26;;;;;;;18.70;8.50;;;8.50;99.90;;;;;;6276514;22;48919;-79
2023/02/05 01:00:52;;;;;;;12.97;6.67;;;8.50;99.90;;;;;;6275731;22;38935;-76
2023/02/05 01:03:19;;;;;;;14.17;6.00;;;8.50;99.90;;;;;;6276645;22;39119;-79
2023/02/05 01:05:45;;;;;;;12.97;6.03;;;8.50;99.90;;;;;;6249366;22;37089;-79
2023/02/05 01:08:12;;;;;;;10.70;4.57;;;8.50;99.90;;;;;;6272900;22;36196;-79
2023/02/05 01:10:43;;;;;;;11.03;4.67;;;8.50;99.90;;;;;;6247852;22;38671;-79
2023/02/05 01:13:09;;;;;;;10.73;3.57;;;8.50;99.90;;;;;;6246796;22;38429;-77
2023/02/05 01:15:35;;;;;;;8.40;3.67;;;8.40;99.90;;;;;;6265257;22;37458;-77
2023/02/05 01:18:02;;;;;;;10.40;3.27;;;8.40;99.90;;;;;;6270633;22;35675;-78
2023/02/05 01:20:28;;;;;;;10.07;2.63;;;8.40;99.90;;;;;;6274576;22;37667;-79
2023/02/05 01:22:55;;;;;;;5.17;2.53;;;8.50;99.90;;;;;;6277012;22;38640;-77
2023/02/05 01:25:22;;;;;;;9.17;2.20;;;8.40;99.90;;;;;;6242888;22;38321;-80
2023/02/05 01:27:48;;;;;;;7.77;1.87;;;8.50;99.90;;;;;;6274117;22;36987;-77
2023/02/05 01:30:14;;;;;;;7.13;2.03;;;8.40;99.90;;;;;;6272770;22;40093;-78
2023/02/05 01:32:41;;;;;;;7.13;1.70;;;8.40;99.90;;;;;;6245584;22;37003;-78
2023/02/05 01:35:08;;;;;;;3.70;1.63;;;8.50;99.90;;;;;;6265738;22;36717;-77
2023/02/05 01:37:34;;;;;;;3.43;1.47;;;8.50;99.90;;;;;;6275331;22;36543;-78
2023/02/05 01:40:00;;;;;;;5.17;1.70;;;8.50;99.90;;;;;;6275895;22;39765;-77
2023/02/05 01:42:28;;;;;;;5.57;1.47;;;8.50;99.90;;;;;;6245916;22;36942;-77
2023/02/05 01:45:32;;;;;;;4.13;1.40;;;8.50;99.90;;;;;;6239946;22;37718;-77
2023/02/05 01:48:00;;;;;;;4.37;1.30;;;8.40;99.90;;;;;;6257785;22;48373;-80
2023/02/05 01:50:35;;;;;;;6.17;1.60;;;8.40;99.90;;;;;;6266693;22;38711;-77
2023/02/05 01:53:10;;;;;;;6.73;1.53;;;8.50;99.90;;;;;;6247645;22;36806;-77
2023/02/05 01:55:54;;;;;;;6.63;1.37;;;8.50;99.90;;;;;;6272289;22;48970;-78
2023/02/05 01:58:21;;;;;;;6.43;1.50;;;8.50;99.90;;;;;;6247244;22;37194;-77
2023/02/05 02:03:26;;;;;;;6.97;2.20;;;8.50;99.90;;;;;;6357381;22;20019;-79
2023/02/05 02:05:54;;;;;;;7.50;1.30;;;8.50;99.90;;;;;;6362678;22;37224;-79
2023/02/05 02:08:22;;;;;;;5.57;1.87;;;8.40;99.90;;;;;;6393538;22;20019;-79
2023/02/05 02:10:50;;;;;;;6.33;1.77;;;8.40;99.90;;;;;;6364660;22;37591;-79
2023/02/05 02:13:19;;;;;;;8.80;1.90;;;8.50;99.90;;;;;;6362928;22;38426;-81
2023/02/05 02:15:46;;;;;;;9.57;2.20;;;8.50;99.90;;;;;;6362048;22;36814;-81
2023/02/05 02:18:27;;;;;;;6.47;2.10;;;8.50;99.90;;;;;;6388947;22;37310;-81
2023/02/05 02:21:21;;;;;;;9.27;2.27;;;8.50;99.90;;;;;;6383515;22;39019;-81
2023/02/05 02:24:01;;;;;;;5.53;1.97;;;8.50;99.90;;;;;;6381536;22;48470;-81
2023/02/05 02:27:05;;;;;;;6.03;1.80;;;8.50;99.90;;;;;;6387712;22;46837;-81
2023/02/05 02:30:22;;;;;;;7.33;2.23;;;8.40;99.90;;;;;;6358250;22;48323;-81
2023/02/05 02:32:55;;;;;;;9.60;2.63;;;8.40;99.90;;;;;;6318522;22;47029;-81
2023/02/05 02:35:24;;;;;;;10.32;2.08;;;8.40;99.90;;;;;;6293794;22;37999;-80
2023/02/05 02:38:15;;;;;;;6.50;2.40;;;8.40;99.90;;;;;;6336658;22;37383;-81
2023/02/05 02:40:48;;;;;;;9.67;3.23;;;8.40;99.90;;;;;;6352984;22;47202;-79
2023/02/05 02:43:36;;;;;;;7.63;2.70;;;8.40;99.90;;;;;;6357293;22;39127;-79
2023/02/05 02:46:27;;;;;;;13.13;3.00;;;8.40;99.90;;;;;;6357145;22;37055;-79
2023/02/05 02:48:55;;;;;;;11.37;3.57;;;8.40;99.90;;;;;;6361185;22;38344;-80
2023/02/05 02:51:24;;;;;;;8.83;2.50;;;8.50;99.90;;;;;;6350080;22;36151;-79
2023/02/05 02:53:55;;;;;;;13.67;3.00;;;8.40;99.90;;;;;;6359252;22;37752;-79
2023/02/05 02:56:23;;;;;;;21.63;3.50;;;8.50;99.90;;;;;;6355763;22;38547;-79
2023/02/05 02:58:54;;;;;;;7.70;3.20;;;8.40;99.90;;;;;;6386547;22;38142;-79
2023/02/05 03:01:23;;;;;;;14.10;3.53;;;8.50;99.90;;;;;;6354705;22;37267;-80
2023/02/05 03:03:59;;;;;;;9.47;3.17;;;8.40;99.90;;;;;;6353905;22;37520;-79
2023/02/05 03:06:27;;;;;;;12.53;3.90;;;8.40;99.90;;;;;;6383030;22;38455;-80
2023/02/05 03:09:09;;;;;;;10.90;4.00;;;8.40;99.90;;;;;;6355118;22;37987;-79
2023/02/05 03:11:35;;;;;;;12.43;4.27;;;8.50;99.90;;;;;;6376080;22;49615;-80
2023/02/05 03:14:01;;;;;;;8.53;4.13;;;8.50;99.90;;;;;;6354379;22;39486;-80
2023/02/05 03:16:27;;;;;;;13.53;4.50;;;8.50;99.90;;;;;;6381787;22;47240;-79
2023/02/05 03:18:56;;;;;;;13.23;4.60;;;8.50;99.90;;;;;;6379787;22;36611;-79
2023/02/05 03:21:27;;;;;;;15.23;4.53;;;8.60;99.90;;;;;;6350980;22;39024;-79
2023/02/05 03:23:54;;;;;;;21.42;5.28;;;8.60;99.90;;;;;;6351504;22;37777;-79
2023/02/05 03:26:28;;;;;;;10.93;5.23;;;8.60;99.90;;;;;;6369111;22;37638;-79
2023/02/05 03:28:58;;;;;;;20.47;6.23;;;8.60;99.90;;;;;;6352861;22;36957;-80
2023/02/05 03:31:39;;;;;;;17.27;6.00;;;8.60;99.90;;;;;;6381970;22;37828;-79
2023/02/05 03:34:36;;;;;;;20.10;5.60;;;8.60;99.90;;;;;;6382932;22;39066;-79
2023/02/05 03:37:56;;;;;;;17.10;5.73;;;8.60;99.90;;;;;;6382862;22;39098;-78
2023/02/05 03:40:31;;;;;;;20.30;6.43;;;8.60;99.90;;;;;;6375553;22;36931;-79
2023/02/05 03:43:34;;;;;;;14.50;6.47;;;8.60;99.90;;;;;;6356285;22;36771;-78
2023/02/05 03:46:03;;;;;;;;;;;8.50;99.90;;;;;;6339172;22;47076;-78
2023/02/05 03:48:58;;;;;;;18.20;7.10;;;8.50;99.90;;;;;;6347257;22;47449;-78
2023/02/05 03:51:50;;;;;;;24.37;8.60;;;8.50;99.90;;;;;;6260194;22;36593;-78
2023/02/05 03:54:25;;;;;;;21.27;7.50;;;8.50;99.90;;;;;;6343949;22;37561;-78
2023/02/05 03:56:59;;;;;;;18.13;8.50;;;8.40;99.90;;;;;;6378823;22;39142;-77
2023/02/05 03:59:27;;;;;;;17.37;9.07;;;8.40;99.90;;;;;;6350372;22;37003;-76
2023/02/05 04:01:53;;;;;;;27.00;9.87;;;8.40;99.90;;;;;;6376634;22;37265;-77
2023/02/05 04:04:20;;;;;;;18.50;9.10;;;8.40;99.90;;;;;;6372613;22;35934;-76
2023/02/05 04:06:50;;;;;;;25.87;10.10;;;8.30;99.90;;;;;;6350454;22;37823;-77
2023/02/05 04:09:16;;;;;;;18.47;8.83;;;8.40;99.90;;;;;;6344499;22;37151;-77
2023/02/05 04:11:42;;;;;;;15.70;8.07;;;8.30;99.90;;;;;;6373488;22;38080;-76
2023/02/05 04:14:08;;;;;;;15.83;8.83;;;8.30;99.90;;;;;;6372149;22;36143;-78
2023/02/05 04:16:34;;;;;;;20.53;9.17;;;8.30;99.90;;;;;;6347624;22;39143;-79
2023/02/05 04:19:00;;;;;;;18.70;8.80;;;8.30;99.90;;;;;;6374586;22;39900;-79
2023/02/05 04:21:29;;;;;;;15.00;7.57;;;8.30;99.90;;;;;;6368052;22;39849;-78
2023/02/05 04:23:55;;;;;;;17.47;7.63;;;8.30;99.90;;;;;;6378968;22;36928;-78
2023/02/05 04:26:22;;;;;;;13.17;8.17;;;8.30;99.90;;;;;;6377238;22;39924;-78
2023/02/05 04:28:48;;;;;;;14.47;7.23;;;8.30;99.90;;;;;;6379084;22;38858;-78
2023/02/05 04:31:14;;;;;;;9.70;6.37;;;8.40;99.90;;;;;;6343748;22;36735;-79
2023/02/05 04:33:41;;;;;;;10.90;6.33;;;8.40;99.90;;;;;;6375287;22;36981;-79
2023/02/05 04:36:07;;;;;;;10.67;6.20;;;8.40;99.90;;;;;;6368430;22;37360;-78
2023/02/05 04:38:34;;;;;;;10.13;4.30;;;8.40;99.90;;;;;;6377198;22;40194;-79
2023/02/05 04:41:01;;;;;;;9.03;4.87;;;8.30;99.90;;;;;;6350499;22;38423;-78
2023/02/05 04:43:27;;;;;;;6.97;3.40;;;8.30;99.90;;;;;;6373185;22;47144;-80
2023/02/05 04:45:53;;;;;;;12.50;3.37;;;8.20;99.90;;;;;;6370044;22;38168;-79
2023/02/05 04:48:20;;;;;;;8.47;2.13;;;8.10;99.90;;;;;;6374088;22;37375;-79
2023/02/05 04:50:46;;;;;;;9.17;1.83;;;8.00;99.90;;;;;;6375332;22;38338;-80
2023/02/05 04:53:12;;;;;;;6.80;1.70;;;7.90;99.90;;;;;;6344694;22;36509;-76
2023/02/05 04:55:39;;;;;;;9.30;1.87;;;7.90;99.90;;;;;;6347096;22;38022;-77
2023/02/05 04:58:05;;;;;;;12.40;2.10;;;7.90;99.90;;;;;;6374553;22;38387;-79
2023/02/05 05:00:31;;;;;;;16.10;2.23;;;7.80;99.90;;;;;;6377105;22;38264;-79
2023/02/05 05:02:57;;;;;;;18.27;1.97;;;7.80;99.90;;;;;;6375703;22;37665;-78
2023/02/05 05:05:23;;;;;;;14.93;2.07;;;7.80;99.90;;;;;;6341214;22;37741;-79
2023/02/05 05:07:50;;;;;;;16.90;2.63;;;7.70;99.90;;;;;;6373591;22;38887;-76
2023/02/05 05:10:16;;;;;;;16.97;2.37;;;7.70;99.90;;;;;;6372362;22;38841;-78
2023/02/05 05:12:42;;;;;;;16.67;2.17;;;7.60;99.90;;;;;;6373497;22;36054;-77
2023/02/05 05:15:08;;;;;;;23.87;2.30;;;7.60;99.90;;;;;;6344812;22;37135;-77
2023/02/05 05:17:34;;;;;;;15.50;3.00;;;7.60;99.90;;;;;;6373124;22;37567;-77
2023/02/05 05:20:01;;;;;;;17.33;2.80;;;7.60;99.90;;;;;;6349823;22;36726;-77
2023/02/05 05:22:27;;;;;;;23.90;3.33;;;7.60;99.90;;;;;;6375088;22;47889;-77
2023/02/05 05:24:53;;;;;;;20.97;2.60;;;7.60;99.90;;;;;;6374129;22;38019;-77
2023/02/05 05:27:21;;;;;;;17.20;2.57;;;7.60;99.90;;;;;;6369152;22;37121;-77
2023/02/05 05:29:48;;;;;;;15.83;2.23;;;7.60;99.90;;;;;;6373192;22;38308;-77
2023/02/05 05:32:14;;;;;;;19.47;2.10;;;7.60;99.90;;;;;;6367832;22;35857;-76
2023/02/05 05:34:40;;;;;;;18.23;2.80;;;7.50;99.90;;;;;;6369757;22;39296;-77
2023/02/05 05:37:06;;;;;;;19.73;2.53;;;7.50;99.90;;;;;;6367713;22;39248;-77
2023/02/05 05:45:01;;;;;;;24.03;2.83;;;7.30;99.90;;;;;;6372692;22;40437;-77
2023/02/05 05:47:27;;;;;;;13.53;2.03;;;7.20;99.90;;;;;;6364822;22;49846;-78
2023/02/05 05:49:54;;;;;;;18.50;2.23;;;7.20;99.90;;;;;;6365518;22;38102;-78
2023/02/05 05:52:20;;;;;;;18.10;2.40;;;7.20;99.90;;;;;;6337410;22;36146;-77
2023/02/05 05:54:46;;;;;;;14.13;1.93;;;7.10;99.90;;;;;;6367180;22;39903;-78
2023/02/05 05:57:12;;;;;;;20.07;2.13;;;7.10;99.90;;;;;;6364556;22;38747;-77
2023/02/05 05:59:38;;;;;;;13.37;2.00;;;7.20;99.90;;;;;;6368274;22;38373;-78
2023/02/05 06:02:04;;;;;;;21.83;2.30;;;7.20;99.90;;;;;;6359705;22;36153;-77
2023/02/05 06:04:30;;;;;;;16.97;2.53;;;7.20;99.90;;;;;;6356022;22;38826;-78
2023/02/05 06:06:58;;;;;;;15.67;2.17;;;7.20;99.90;;;;;;6366036;22;38518;-77
2023/02/05 06:09:24;;;;;;;22.47;2.50;;;7.30;99.90;;;;;;6330516;22;37181;-78
2023/02/05 06:11:50;;;;;;;16.70;2.80;;;7.30;99.90;;;;;;6340079;22;36471;-78
2023/02/05 06:14:16;;;;;;;21.40;3.40;;;7.30;99.90;;;;;;6336670;22;38016;-78
2023/02/05 06:16:42;;;;;;;21.13;2.73;;;7.30;99.90;;;;;;6368001;22;38467;-78
2023/02/05 06:19:08;;;;;;;24.83;2.40;;;7.30;99.90;;;;;;6367504;22;39291;-77
2023/02/05 06:21:34;;;;;;;17.47;2.83;;;7.40;99.90;;;;;;6342254;22;37122;-78
2023/02/05 06:24:00;;;;;;;16.80;2.70;;;7.40;99.90;;;;;;6343277;22;39307;-78
2023/02/05 06:26:26;;;;;;;14.37;2.30;;;7.40;99.90;;;;;;6367706;22;46903;-77
2023/02/05 06:28:55;;;;;;;16.40;2.47;;;7.40;99.90;;;;;;6371619;22;38060;-77
2023/02/05 06:31:22;;;;;;;20.60;3.30;;;7.40;99.90;;;;;;6369554;22;37334;-77
2023/02/05 06:33:48;;;;;;;16.27;2.30;;;7.40;99.90;;;;;;6368135;22;37750;-77
2023/02/05 06:36:14;;;;;;;24.63;3.27;;;7.40;99.90;;;;;;6367048;22;38377;-77
2023/02/05 06:38:40;;;;;;;21.17;2.93;;;7.40;99.90;;;;;;6340721;22;37904;-78
2023/02/05 06:41:06;;;;;;;19.57;2.73;;;7.40;99.90;;;;;;6338444;22;37092;-78
2023/02/05 06:43:32;;;;;;;16.73;2.90;;;7.40;99.90;;;;;;6341707;22;38712;-78
2023/02/05 06:45:58;;;;;;;18.27;2.50;;;7.30;99.90;;;;;;6369518;22;39393;-77
2023/02/05 06:48:25;;;;;;;21.97;3.03;;;7.40;99.90;;;;;;6370639;22;39033;-78
2023/02/05 06:50:51;;;;;;;22.43;2.60;;;7.50;99.90;;;;;;6371899;22;36368;-78
2023/02/05 06:53:17;;;;;;;18.27;3.00;;;7.50;99.90;;;;;;6369318;22;39007;-78
2023/02/05 06:55:43;;;;;;;18.93;3.10;;;7.50;99.90;;;;;;6340952;22;37026;-77
2023/02/05 06:58:09;;;;;;;13.83;2.63;;;7.50;99.90;;;;;;6337245;22;37036;-77
2023/02/05 07:00:35;;;;;;;18.17;2.47;;;7.50;99.90;;;;;;6366815;22;38046;-78
2023/02/05 07:03:01;;;;;;;23.23;3.53;;;7.50;99.90;;;;;;6338914;22;37827;-79
2023/02/05 07:05:27;;;;;;;19.60;2.97;;;7.40;99.90;;;;;;6363795;22;49115;-78
2023/02/05 07:07:53;;;;;;;24.03;2.77;;;7.40;99.90;;;;;;6341326;22;37688;-78
2023/02/05 07:10:20;;;;;;;22.37;3.77;;;7.50;99.90;;;;;;6363874;22;37774;-78
2023/02/05 07:12:46;;;;;;;23.43;3.17;;;7.50;99.90;;;;;;6366901;22;37796;-78
2023/02/05 07:15:12;;;;;;;24.17;3.90;;;7.50;99.90;;;;;;6361711;22;38441;-78
2023/02/05 07:17:38;;;;;;;18.07;3.40;;;7.50;99.90;;;;;;6362928;22;36937;-78
2023/02/05 07:20:05;;;;;;;26.23;4.60;;;7.50;99.90;;;;;;6336448;22;36042;-78
2023/02/05 07:22:31;;;;;;;16.63;2.93;;;7.50;99.90;;;;;;6337835;22;47237;-78
2023/02/05 07:24:57;;;;;;;19.60;2.93;;;7.50;99.90;;;;;;6337656;22;38503;-78
2023/02/05 07:27:23;;;;;;;28.60;3.40;;;7.50;99.90;;;;;;6360816;22;37385;-78
2023/02/05 07:29:49;;;;;;;25.83;3.17;;;7.40;99.90;;;;;;6365618;22;36492;-79
2023/02/05 07:32:15;;;;;;;41.47;5.03;;;7.50;99.90;;;;;;6334444;22;39512;-78
2023/02/05 07:34:42;;;;;;;17.60;2.93;;;7.50;99.90;;;;;;6336814;22;37114;-78
2023/02/05 07:37:11;;;;;;;30.17;3.37;;;7.50;99.90;;;;;;6360780;22;36881;-77
2023/02/05 07:39:38;;;;;;;30.20;3.20;;;7.40;99.90;;;;;;6366781;22;36948;-77
2023/02/05 07:42:04;;;;;;;24.53;3.37;;;7.30;99.90;;;;;;6363732;22;39847;-77
2023/02/05 07:44:30;;;;;;;22.97;4.03;;;7.20;99.90;;;;;;6337237;22;39012;-77
2023/02/05 07:46:56;;;;;;;26.37;3.33;;;7.10;99.90;;;;;;6366750;22;38173;-78
2023/02/05 07:49:22;;;;;;;24.60;3.40;;;7.00;99.90;;;;;;6363516;22;36354;-78
2023/02/05 07:51:49;;;;;;;24.30;3.23;;;7.00;99.90;;;;;;6367552;22;39398;-78
2023/02/05 07:54:15;;;;;;;24.77;3.00;;;7.00;99.90;;;;;;6337793;22;37641;-78
2023/02/05 07:56:41;;;;;;;17.27;3.27;;;7.00;99.90;;;;;;6339278;22;38077;-78
2023/02/05 07:59:08;;;;;;;18.20;3.10;;;7.00;99.90;;;;;;6337751;22;36163;-77
2023/02/05 08:01:34;;;;;;;16.93;2.67;;;7.00;99.90;;;;;;6368304;22;39013;-77
2023/02/05 08:04:00;;;;;;;28.00;3.13;;;7.00;99.90;;;;;;6365546;22;37909;-77
2023/02/05 08:06:26;;;;;;;28.83;3.33;;;7.00;99.90;;;;;;6364158;22;48212;-77
2023/02/05 08:08:54;;;;;;;19.60;3.47;;;7.00;99.90;;;;;;6341728;22;36359;-77
2023/02/05 08:11:21;;;;;;;29.43;4.03;;;7.20;99.90;;;;;;6360852;22;39137;-77
2023/02/05 08:13:47;;;;;;;27.83;3.67;;;7.20;99.90;;;;;;6366632;22;37212;-78
2023/02/05 08:16:17;;;;;;;36.60;4.87;;;7.20;99.90;;;;;;6366464;22;36818;-78
2023/02/05 08:18:48;;;;;;;21.97;3.47;;;7.20;99.90;;;;;;6356112;22;38378;-78
2023/02/05 08:21:14;;;;;;;24.70;3.77;;;7.30;99.90;;;;;;6355650;22;39083;-77
2023/02/05 08:23:40;;;;;;;33.37;5.20;;;7.30;99.90;;;;;;6341865;22;37038;-77
2023/02/05 08:26:06;;;;;;;37.87;5.60;;;7.40;99.90;;;;;;6366071;22;37910;-77
2023/02/05 08:28:32;;;;;;;40.70;4.33;;;7.60;99.90;;;;;;6366540;22;36091;-79
2023/02/05 08:30:58;;;;;;;32.60;4.27;;;7.60;99.90;;;;;;6368295;22;37982;-78
2023/02/05 08:33:24;;;;;;;40.83;4.90;;;7.70;99.90;;;;;;6372401;22;38077;-77
2023/02/05 08:35:50;;;;;;;30.20;4.17;;;7.80;99.90;;;;;;6367216;22;36353;-77
2023/02/05 08:38:16;;;;;;;25.93;4.73;;;7.80;99.90;;;;;;6341398;22;36059;-78
2023/02/05 08:40:43;;;;;;;38.73;5.63;;;7.80;99.90;;;;;;6367129;22;38895;-78
2023/02/05 08:43:09;;;;;;;37.17;5.27;;;7.80;99.90;;;;;;6338763;22;37104;-78
2023/02/05 08:45:35;;;;;;;38.07;5.77;;;7.90;99.90;;;;;;6368061;22;39087;-77
2023/02/05 08:48:01;;;;;;;43.47;6.30;;;7.90;99.90;;;;;;6339961;22;36058;-78
2023/02/05 08:50:27;;;;;;;32.37;5.27;;;7.90;99.90;;;;;;6336622;22;47317;-78
2023/02/05 08:52:53;;;;;;;37.40;4.47;;;8.00;99.90;;;;;;6373519;22;39270;-79
2023/02/05 08:55:19;;;;;;;41.00;6.03;;;8.00;99.90;;;;;;6362773;22;38655;-78
2023/02/05 08:57:45;;;;;;;33.63;7.23;;;8.00;99.90;;;;;;6367756;22;37327;-79
2023/02/05 09:00:13;;;;;;;34.20;5.43;;;8.00;99.90;;;;;;6345536;22;37850;-79
2023/02/05 09:02:42;;;;;;;36.50;5.27;;;8.00;99.90;;;;;;6340852;22;47265;-78
2023/02/05 09:05:08;;;;;;;46.00;5.67;;;8.00;99.90;;;;;;6372103;22;38406;-77
2023/02/05 09:07:35;;;;;;;33.70;4.87;;;8.00;99.90;;;;;;6343089;22;37083;-77
2023/02/05 09:10:01;;;;;;;32.63;6.50;;;8.10;99.90;;;;;;6347344;22;37384;-78
2023/02/05 09:12:27;;;;;;;35.53;5.50;;;8.10;99.90;;;;;;6375330;22;48744;-78
2023/02/05 09:14:53;;;;;;;33.57;6.43;;;8.10;99.90;;;;;;6376979;22;38306;-78
2023/02/05 09:17:19;;;;;;;32.17;5.00;;;8.20;99.90;;;;;;6369638;22;37507;-78
2023/02/05 09:19:45;;;;;;;27.40;4.23;;;8.20;99.90;;;;;;6373533;22;39997;-78
2023/02/05 09:22:11;;;;;;;33.20;5.90;;;8.20;99.90;;;;;;6342136;22;37548;-78
2023/02/05 09:24:37;;;;;;;40.33;6.40;;;8.20;99.90;;;;;;6371272;22;38105;-79
2023/02/05 09:27:03;;;;;;;39.87;5.80;;;8.20;99.90;;;;;;6340661;22;36268;-78
2023/02/05 09:29:30;;;;;;;38.80;6.27;;;8.20;99.90;;;;;;6372088;22;38812;-79
2023/02/05 09:31:56;;;;;;;37.87;5.33;;;8.20;99.90;;;;;;6369683;22;37611;-80
2023/02/05 09:34:23;;;;;;;34.43;5.43;;;8.20;99.90;;;;;;6350073;22;37067;-79
2023/02/05 09:36:49;;;;;;;34.77;5.60;;;8.30;99.90;;;;;;6371880;22;38651;-80
2023/02/05 09:39:15;;;;;;;36.03;5.73;;;8.40;99.90;;;;;;6375689;22;39295;-80
2023/02/05 09:41:58;;;;;;;40.73;5.90;;;8.30;99.90;;;;;;6349283;22;37347;-80
2023/02/05 09:44:45;;;;;;;39.30;5.43;;;8.40;99.90;;;;;;6343377;22;36906;-79
2023/02/05 09:47:28;;;;;;;46.43;6.60;;;8.30;99.90;;;;;;6346764;22;35920;-79
2023/02/05 09:50:13;;;;;;;29.47;5.27;;;8.40;99.90;;;;;;6384254;22;38971;-78
2023/02/05 09:52:48;;;;;;;31.73;5.07;;;8.40;99.90;;;;;;6351838;22;46988;-80
2023/02/05 09:55:24;;;;;;;34.00;5.97;;;8.50;99.90;;;;;;6349609;22;37725;-78
2023/02/05 09:57:57;;;;;;;39.57;5.30;;;8.60;99.90;;;;;;6378188;22;36570;-78
2023/02/05 10:00:52;;;;;;;35.40;6.13;;;8.70;99.90;;;;;;6346903;22;37403;-80
2023/02/05 10:03:35;;;;;;;42.23;7.67;;;8.80;99.90;;;;;;6376554;22;39892;-79
2023/02/05 10:06:37;;;;;;;45.67;7.30;;;8.80;99.90;;;;;;6385580;22;38190;-79
2023/02/05 10:09:22;;;;;;;33.27;6.07;;;8.80;99.90;;;;;;6211651;23;48722;-80
2023/02/05 10:12:00;;;;;;;36.23;5.07;;;8.80;99.90;;;;;;6343109;22;47547;-80
2023/02/05 10:14:58;;;;;;;33.47;5.40;;;8.70;99.90;;;;;;6362220;22;38911;-80
2023/02/05 10:17:49;;;;;;;35.30;5.40;;;8.80;99.90;;;;;;6363733;22;37358;-81
2023/02/05 10:20:23;;;;;;;31.97;5.77;;;8.80;99.90;;;;;;6364081;22;37981;-80
2023/02/05 10:23:23;;;;;;;37.77;5.00;;;8.80;99.90;;;;;;6357921;22;38859;-80
2023/02/05 10:26:08;;;;;;;39.60;6.17;;;8.70;99.90;;;;;;6366910;22;47054;-82
2023/02/05 10:28:48;;;;;;;33.77;6.00;;;8.70;99.90;;;;;;6363091;22;48341;-80
2023/02/05 10:31:36;;;;;;;34.13;5.57;;;8.70;99.90;;;;;;6367046;22;37263;-80
2023/02/05 10:34:28;;;;;;;42.57;5.73;;;8.70;99.90;;;;;;6362392;22;37752;-80
2023/02/05 10:37:05;;;;;;;32.20;4.93;;;8.70;99.90;;;;;;6364107;22;38733;-80
2023/02/05 10:39:31;;;;;;;37.10;5.90;;;8.60;99.90;;;;;;6383153;22;48079;-79
2023/02/05 10:42:26;;;;;;;35.17;4.90;;;8.60;99.90;;;;;;6364101;22;37360;-82
2023/02/05 10:45:11;;;;;;;24.27;4.83;;;8.60;99.90;;;;;;6377295;22;46881;-81
2023/02/05 10:48:10;;;;;;;38.63;6.20;;;8.70;99.90;;;;;;6395296;22;48963;-81
2023/02/05 10:50:57;;;;;;;37.07;5.57;;;8.80;99.90;;;;;;6365159;22;47303;-82
2023/02/05 10:53:28;;;;;;;26.63;4.70;;;8.90;99.90;;;;;;6362984;22;37011;-82
2023/02/05 10:58:52;;;;;;;41.83;5.77;;;9.00;99.90;;;;;;6328910;22;19999;-82
2023/02/05 11:01:30;;;;;;;33.33;5.40;;;9.20;99.90;;;;;;6319585;22;38727;-80
2023/02/05 11:06:58;;;;;;;35.03;5.40;;;9.00;99.90;;;;;;6294355;22;20012;-81
2023/02/05 11:09:24;;;;;;;34.97;5.40;;;9.00;99.90;;;;;;6269700;22;37565;-81
2023/02/05 11:11:52;;;;;;;32.43;6.17;;;9.10;99.90;;;;;;6299087;22;38299;-80
2023/02/05 11:14:27;;;;;;;30.57;5.07;;;9.10;99.90;;;;;;6269968;22;37699;-80
2023/02/05 11:16:53;;;;;;;34.53;5.63;;;9.30;99.90;;;;;;6276887;22;38707;-81
2023/02/05 11:19:27;;;;;;;37.43;5.37;;;9.10;99.90;;;;;;6299877;22;38796;-83
2023/02/05 11:21:56;;;;;;;23.63;4.13;;;9.10;99.90;;;;;;6271761;22;37033;-81
2023/02/05 11:24:34;;;;;;;31.63;5.27;;;9.20;99.90;;;;;;6269741;22;36122;-82
2023/02/05 11:27:45;;;;;;;34.30;5.40;;;9.30;99.90;;;;;;6255832;22;38630;-82
2023/02/05 11:30:34;;;;;;;40.00;5.90;;;9.30;99.90;;;;;;6191350;22;47936;-84
2023/02/05 11:35:36;;;;;;;28.30;5.30;;;9.30;99.90;;;;;;6291937;22;20024;-82
2023/02/05 11:38:10;;;;;;;29.43;4.23;;;9.30;99.90;;;;;;6371114;22;38812;-82
2023/02/05 11:51:54;;;;;;;28.30;4.57;;;9.20;99.90;;;;;;6330223;22;20013;-80
2023/02/05 11:54:44;;;;;;;25.67;4.57;;;9.20;99.90;;;;;;6302738;22;38545;-81
2023/02/05 12:08:12;;;;;;;27.43;4.40;;;9.50;99.90;;;;;;6300931;22;20025;-79
2023/02/05 12:38:07;;;;;;;35.83;4.63;;;9.50;99.90;;;;;;6263398;22;20031;-79
2023/02/05 12:41:09;;;;;;;24.70;4.47;;;9.60;99.90;;;;;;6251255;22;48849;-83
2023/02/05 12:46:46;;;;;;;26.70;5.50;;;9.40;99.90;;;;;;6277170;22;20011;-82
2023/02/05 12:49:58;;;;;;;33.37;4.97;;;9.30;99.90;;;;;;6277439;22;37733;-82
2023/02/05 15:09:54;;;;;;;36.93;6.10;;;9.10;99.90;;;;;;6240724;22;20027;31
2023/02/05 17:07:28;;;;;;;38.70;6.73;;;7.10;99.90;;;;;;6211220;22;20016;31
2023/02/05 17:58:35;;;;;;;38.83;6.20;;;6.50;99.90;;;;;;6215757;22;20021;31
2023/02/05 18:22:36;;;;;;;;;;;;;;;;;;;;;
2023/02/05 18:36:16;;;;;;;42.17;8.27;;;6.50;99.90;;;;;;6230659;22;20008;-83
2023/02/05 18:38:51;;;;;;;38.17;6.10;;;6.50;99.90;;;;;;6238157;22;38681;-82
2023/02/05 18:44:01;;;;;;;50.97;6.30;;;6.50;99.90;;;;;;6311479;22;20018;-82
2023/02/05 18:46:28;;;;;;;40.10;6.00;;;6.50;99.90;;;;;;6295892;22;37703;-82
2023/02/05 18:59:19;;;;;;;33.43;5.93;;;6.50;99.90;;;;;;6220525;22;21828;-81
2023/02/05 19:04:26;;;;;;;37.67;5.97;;;6.60;99.90;;;;;;6260036;22;21145;-80
2023/02/05 19:06:54;;;;;;;40.63;6.13;;;6.50;99.90;;;;;;6265773;22;36758;-78
2023/02/05 19:09:22;;;;;;;37.60;5.73;;;6.50;99.90;;;;;;6252535;22;38311;-80
2023/02/05 19:11:49;;;;;;;48.40;6.90;;;6.50;99.90;;;;;;6261983;22;38073;-80
2023/02/05 19:14:18;;;;;;;47.67;6.57;;;6.50;99.90;;;;;;6257193;22;36875;-79
2023/02/05 19:16:46;;;;;;;41.60;6.47;;;6.50;99.90;;;;;;6252318;22;36717;-80
2023/02/05 19:19:16;;;;;;;41.43;6.30;;;6.60;99.90;;;;;;6251510;22;37838;-80
2023/02/05 19:21:46;;;;;;;34.60;5.83;;;6.60;99.90;;;;;;6254955;22;38497;-79
2023/02/05 19:24:13;;;;;;;37.60;6.63;;;6.60;99.90;;;;;;6253628;22;37006;-80
2023/02/05 19:26:42;;;;;;;29.07;6.40;;;6.60;99.90;;;;;;6257114;22;37015;-80
2023/02/05 19:29:14;;;;;;;47.07;7.07;;;6.60;99.90;;;;;;6277411;22;39425;-80
2023/02/05 19:31:44;;;;;;;39.80;6.28;;;6.50;99.90;;;;;;6263022;22;37684;-80
2023/02/05 19:34:11;;;;;;;36.50;7.50;;;6.50;99.90;;;;;;6255360;22;37345;-81
2023/02/05 19:36:38;;;;;;;38.60;5.67;;;6.50;99.90;;;;;;6252856;22;36323;-81
2023/02/05 19:39:13;;;;;;;36.20;6.53;;;6.50;99.90;;;;;;6244303;22;37556;-81
2023/02/05 19:41:44;;;;;;;46.27;7.97;;;6.40;99.90;;;;;;6233591;22;48396;-80
2023/02/05 19:44:19;;;;;;;35.77;6.87;;;6.40;99.90;;;;;;6224470;22;37130;-82
2023/02/05 19:46:47;;;;;;;27.83;5.60;;;6.40;99.90;;;;;;6247933;22;36277;-81
2023/02/05 19:49:20;;;;;;;41.50;7.13;;;6.40;99.90;;;;;;6239611;22;37882;-80
2023/02/05 19:51:53;;;;;;;38.20;7.00;;;6.30;99.90;;;;;;6236848;22;39248;-80
2023/02/05 19:54:22;;;;;;;46.93;7.13;;;6.30;99.90;;;;;;6223347;22;36036;-81
2023/02/05 19:56:52;;;;;;;41.60;7.23;;;6.20;99.90;;;;;;6243348;22;36174;-81
2023/02/05 19:59:21;;;;;;;40.70;7.67;;;6.20;99.90;;;;;;6235478;22;38475;-82
2023/02/05 20:01:48;;;;;;;38.53;6.77;;;6.20;99.90;;;;;;6255610;22;38801;-81
2023/02/05 20:04:21;;;;;;;46.23;7.37;;;6.20;99.90;;;;;;6221272;22;37619;-81
2023/02/05 20:06:53;;;;;;;46.67;9.15;;;6.20;99.90;;;;;;6246131;22;36699;-80